createdAt,value
2022-09-10T00:00:48.083Z,14.34
2022-09-10T00:01:43.286Z,14.34
2022-09-10T00:02:38.631Z,14.36
2022-09-10T00:03:33.625Z,14.36
2022-09-10T00:04:28.889Z,14.35
2022-09-10T00:05:23.924Z,14.34
2022-09-10T00:06:19.330Z,14.31
2022-09-10T00:07:14.484Z,14.30
2022-09-10T00:08:09.897Z,14.26
2022-09-10T00:09:05.172Z,14.26
2022-09-10T00:10:00.403Z,14.23
2022-09-10T00:10:55.552Z,14.24
2022-09-10T00:11:50.697Z,14.22
2022-09-10T00:12:45.954Z,14.21
2022-09-10T00:13:41.208Z,14.22
2022-09-10T00:14:36.389Z,14.18
2022-09-10T00:15:31.647Z,14.16
2022-09-10T00:16:27.070Z,14.19
2022-09-10T00:17:22.095Z,14.21
2022-09-10T00:18:17.278Z,14.19
2022-09-10T00:19:12.418Z,14.19
2022-09-10T00:20:07.656Z,14.21
2022-09-10T00:21:03.075Z,14.20
2022-09-10T00:21:58.214Z,14.19
2022-09-10T00:22:53.468Z,14.18
2022-09-10T00:23:48.651Z,14.14
2022-09-10T00:24:43.922Z,14.04
2022-09-10T00:25:39.165Z,14.04
2022-09-10T00:26:34.303Z,14.04
2022-09-10T00:27:29.589Z,14.02
2022-09-10T00:28:24.732Z,13.99
2022-09-10T00:29:19.869Z,13.97
2022-09-10T00:30:15.259Z,13.98
2022-09-10T00:31:10.319Z,13.98
2022-09-10T00:32:05.424Z,13.98
2022-09-10T00:33:00.689Z,14.01
2022-09-10T00:33:55.745Z,14.00
2022-09-10T00:34:50.731Z,14.00
2022-09-10T00:35:45.842Z,14.02
2022-09-10T00:36:40.907Z,14.03
2022-09-10T00:37:36.029Z,14.01
2022-09-10T00:38:31.257Z,14.02
2022-09-10T00:39:26.116Z,14.03
2022-09-10T00:40:21.139Z,14.01
2022-09-10T00:41:16.239Z,14.01
2022-09-10T00:42:11.447Z,14.03
2022-09-10T00:43:09.702Z,14.05
2022-09-10T00:44:04.820Z,14.04
2022-09-10T00:45:00.024Z,14.04
2022-09-10T00:45:55.055Z,14.05
2022-09-10T00:46:50.064Z,14.07
2022-09-10T00:47:45.059Z,14.11
2022-09-10T00:48:40.076Z,14.13
2022-09-10T00:49:35.097Z,14.13
2022-09-10T00:50:30.127Z,14.12
2022-09-10T00:51:25.120Z,14.17
2022-09-10T00:52:20.122Z,14.23
2022-09-10T00:53:15.178Z,14.26
2022-09-10T00:54:10.363Z,14.26
2022-09-10T00:55:05.433Z,14.25
2022-09-10T00:56:00.480Z,14.22
2022-09-10T00:56:55.556Z,14.17
2022-09-10T00:57:52.439Z,14.15
2022-09-10T00:58:47.434Z,14.13
2022-09-10T00:59:42.542Z,14.10
2022-09-10T01:00:37.618Z,14.08
2022-09-10T01:01:32.645Z,14.10
2022-09-10T01:02:27.672Z,14.12
2022-09-10T01:03:25.614Z,14.12
2022-09-10T01:04:17.760Z,14.10
2022-09-10T01:05:12.804Z,14.10
2022-09-10T01:06:07.812Z,14.09
2022-09-10T01:07:02.829Z,14.11
2022-09-10T01:07:57.913Z,14.14
2022-09-10T01:08:53.356Z,14.17
2022-09-10T01:09:48.598Z,14.18
2022-09-10T01:10:43.785Z,14.18
2022-09-10T01:11:39.627Z,14.16
2022-09-10T01:12:36.115Z,14.14
2022-09-10T01:13:30.640Z,14.13
2022-09-10T01:14:25.770Z,14.12
2022-09-10T01:15:21.095Z,14.12
2022-09-10T01:16:16.956Z,14.13
2022-09-10T01:17:12.139Z,14.18
2022-09-10T01:18:07.277Z,14.22
2022-09-10T01:19:03.665Z,14.25
2022-09-10T01:19:58.943Z,14.27
2022-09-10T01:20:54.787Z,14.27
2022-09-10T01:21:49.985Z,14.27
2022-09-10T01:22:45.126Z,14.25
2022-09-10T01:23:41.106Z,14.23
2022-09-10T01:24:36.410Z,14.21
2022-09-10T01:25:32.350Z,14.22
2022-09-10T01:26:27.512Z,14.22
2022-09-10T01:27:22.792Z,14.22
2022-09-10T01:28:18.671Z,14.22
2022-09-10T01:29:13.843Z,14.25
2022-09-10T01:30:09.235Z,14.25
2022-09-10T01:31:05.596Z,14.25
2022-09-10T01:32:00.626Z,14.27
2022-09-10T01:32:56.581Z,14.27
2022-09-10T01:33:51.696Z,14.27
2022-09-10T01:34:46.970Z,14.27
2022-09-10T01:35:42.709Z,14.29
2022-09-10T01:36:38.302Z,14.35
2022-09-10T01:37:33.748Z,14.38
2022-09-10T01:38:28.980Z,14.41
2022-09-10T01:39:24.412Z,14.44
2022-09-10T01:40:20.130Z,14.45
2022-09-10T01:41:15.399Z,14.45
2022-09-10T01:42:10.590Z,14.43
2022-09-10T01:43:06.949Z,14.39
2022-09-10T01:44:02.251Z,14.34
2022-09-10T01:44:58.229Z,14.31
2022-09-10T01:45:53.363Z,14.29
2022-09-10T01:46:48.545Z,14.28
2022-09-10T01:47:44.247Z,14.25
2022-09-10T01:48:39.570Z,14.24
2022-09-10T01:49:35.205Z,14.20
2022-09-10T01:50:30.485Z,14.12
2022-09-10T01:51:25.646Z,14.08
2022-09-10T01:52:21.495Z,14.06
2022-09-10T01:53:16.664Z,14.08
2022-09-10T01:54:11.918Z,14.08
2022-09-10T01:55:07.223Z,14.10
2022-09-10T01:56:02.947Z,14.08
2022-09-10T01:56:58.313Z,14.08
2022-09-10T01:57:53.603Z,14.07
2022-09-10T01:58:49.342Z,14.09
2022-09-10T01:59:44.641Z,14.15
2022-09-10T02:00:40.812Z,14.18
2022-09-10T02:01:35.637Z,14.16
2022-09-10T02:02:31.325Z,14.16
2022-09-10T02:03:26.905Z,14.17
2022-09-10T02:04:22.186Z,14.20
2022-09-10T02:05:17.385Z,14.19
2022-09-10T02:06:13.750Z,14.17
2022-09-10T02:07:09.181Z,14.17
2022-09-10T02:08:04.888Z,14.16
2022-09-10T02:09:00.131Z,14.16
2022-09-10T02:09:55.320Z,14.16
2022-09-10T02:10:51.213Z,14.14
2022-09-10T02:11:46.369Z,14.14
2022-09-10T02:12:41.628Z,14.16
2022-09-10T02:13:36.872Z,14.16
2022-09-10T02:14:32.014Z,14.16
2022-09-10T02:15:27.248Z,14.13
2022-09-10T02:16:22.545Z,14.10
2022-09-10T02:17:18.926Z,14.06
2022-09-10T02:18:14.068Z,14.06
2022-09-10T02:19:09.591Z,14.06
2022-09-10T02:20:05.177Z,14.04
2022-09-10T02:21:00.310Z,14.13
2022-09-10T02:21:55.499Z,14.18
2022-09-10T02:22:50.645Z,14.23
2022-09-10T02:23:45.813Z,14.21
2022-09-10T02:24:41.078Z,14.16
2022-09-10T02:25:37.548Z,14.12
2022-09-10T02:26:32.657Z,14.13
2022-09-10T02:27:27.874Z,14.16
2022-09-10T02:28:27.194Z,14.15
2022-09-10T02:29:22.207Z,14.14
2022-09-10T02:30:17.481Z,14.15
2022-09-10T02:31:12.849Z,14.14
2022-09-10T02:32:07.871Z,14.12
2022-09-10T02:33:02.898Z,14.06
2022-09-10T02:33:57.928Z,14.03
2022-09-10T02:34:52.924Z,14.01
2022-09-10T02:35:47.968Z,13.97
2022-09-10T02:36:43.076Z,13.95
2022-09-10T02:37:38.224Z,13.92
2022-09-10T02:38:33.248Z,13.85
2022-09-10T02:39:28.430Z,13.78
2022-09-10T02:40:23.576Z,13.79
2022-09-10T02:41:18.733Z,13.79
2022-09-10T02:42:13.760Z,13.80
2022-09-10T02:43:08.806Z,13.78
2022-09-10T02:44:03.789Z,13.80
2022-09-10T02:44:58.785Z,13.83
2022-09-10T02:45:53.876Z,13.84
2022-09-10T02:46:48.847Z,13.89
2022-09-10T02:47:43.856Z,13.92
2022-09-10T02:48:38.949Z,13.96
2022-09-10T02:49:33.932Z,13.95
2022-09-10T02:50:28.927Z,13.95
2022-09-10T02:51:24.047Z,13.99
2022-09-10T02:52:19.465Z,13.93
2022-09-10T02:53:14.630Z,13.91
2022-09-10T02:54:09.745Z,13.92
2022-09-10T02:55:04.886Z,13.93
2022-09-10T02:56:00.317Z,13.93
2022-09-10T02:56:55.414Z,13.93
2022-09-10T02:57:50.594Z,13.94
2022-09-10T02:58:45.742Z,13.96
2022-09-10T02:59:40.896Z,13.93
2022-09-10T03:00:35.905Z,13.90
2022-09-10T03:01:30.937Z,13.90
2022-09-10T03:02:25.982Z,13.84
2022-09-10T03:03:21.125Z,13.79
2022-09-10T03:04:16.147Z,13.79
2022-09-10T03:05:11.480Z,13.82
2022-09-10T03:06:06.481Z,13.82
2022-09-10T03:07:01.695Z,13.88
2022-09-10T03:07:56.532Z,13.92
2022-09-10T03:08:51.600Z,13.95
2022-09-10T03:09:46.579Z,13.94
2022-09-10T03:10:41.702Z,13.95
2022-09-10T03:11:36.740Z,13.92
2022-09-10T03:12:31.752Z,13.90
2022-09-10T03:13:26.880Z,13.91
2022-09-10T03:14:21.907Z,13.87
2022-09-10T03:15:16.945Z,13.81
2022-09-10T03:16:11.994Z,13.76
2022-09-10T03:17:07.019Z,13.73
2022-09-10T03:18:02.046Z,13.73
2022-09-10T03:18:57.089Z,13.74
2022-09-10T03:19:52.214Z,13.75
2022-09-10T03:20:47.421Z,13.78
2022-09-10T03:21:43.264Z,13.81
2022-09-10T03:22:38.444Z,13.81
2022-09-10T03:23:36.642Z,13.81
2022-09-10T03:24:29.425Z,13.79
2022-09-10T03:25:24.996Z,13.78
2022-09-10T03:26:20.218Z,13.76
2022-09-10T03:27:15.907Z,13.73
2022-09-10T03:28:11.282Z,13.73
2022-09-10T03:29:06.555Z,13.72
2022-09-10T03:30:02.276Z,13.73
2022-09-10T03:30:57.553Z,13.72
2022-09-10T03:31:52.778Z,13.65
2022-09-10T03:32:49.169Z,13.58
2022-09-10T03:33:44.313Z,13.56
2022-09-10T03:34:40.151Z,13.56
2022-09-10T03:35:35.393Z,13.57
2022-09-10T03:36:30.563Z,13.58
2022-09-10T03:37:26.410Z,13.60
2022-09-10T03:38:21.613Z,13.62
2022-09-10T03:39:17.452Z,13.61
2022-09-10T03:40:12.619Z,13.58
2022-09-10T03:41:07.957Z,13.53
2022-09-10T03:42:03.790Z,13.49
2022-09-10T03:42:58.977Z,13.50
2022-09-10T03:43:54.228Z,13.46
2022-09-10T03:44:50.618Z,13.46
2022-09-10T03:45:45.974Z,13.45
2022-09-10T03:46:41.777Z,13.46
2022-09-10T03:47:36.928Z,13.50
2022-09-10T03:48:32.166Z,13.52
2022-09-10T03:49:27.867Z,13.52
2022-09-10T03:50:23.265Z,13.53
2022-09-10T03:51:19.118Z,13.54
2022-09-10T03:52:14.130Z,13.52
2022-09-10T03:53:09.520Z,13.49
2022-09-10T03:54:05.376Z,13.53
2022-09-10T03:55:00.654Z,13.57
2022-09-10T03:55:56.215Z,13.57
2022-09-10T03:56:52.066Z,13.57
2022-09-10T03:57:47.355Z,13.63
2022-09-10T03:58:43.217Z,13.65
2022-09-10T03:59:38.385Z,13.60
2022-09-10T04:00:33.845Z,13.58
2022-09-10T04:01:29.495Z,13.46
2022-09-10T04:02:24.666Z,13.42
2022-09-10T04:03:20.369Z,13.37
2022-09-10T04:04:15.759Z,13.33
2022-09-10T04:05:11.284Z,13.31
2022-09-10T04:06:06.865Z,13.31
2022-09-10T04:07:02.006Z,13.33
2022-09-10T04:07:57.262Z,13.24
2022-09-10T04:08:53.500Z,13.23
2022-09-10T04:09:48.801Z,13.23
2022-09-10T04:10:44.611Z,13.22
2022-09-10T04:11:39.872Z,13.18
2022-09-10T04:12:35.161Z,13.13
2022-09-10T04:13:30.873Z,13.13
2022-09-10T04:14:26.050Z,13.16
2022-09-10T04:15:21.891Z,13.20
2022-09-10T04:16:17.207Z,13.18
2022-09-10T04:17:12.348Z,13.17
2022-09-10T04:18:07.606Z,13.19
2022-09-10T04:19:02.926Z,13.22
2022-09-10T04:19:58.636Z,13.26
2022-09-10T04:20:53.930Z,13.26
2022-09-10T04:21:49.803Z,13.27
2022-09-10T04:22:44.949Z,13.26
2022-09-10T04:23:40.226Z,13.26
2022-09-10T04:24:35.977Z,13.27
2022-09-10T04:25:31.266Z,13.31
2022-09-10T04:26:26.459Z,13.23
2022-09-10T04:27:22.687Z,13.17
2022-09-10T04:28:18.024Z,13.14
2022-09-10T04:29:13.800Z,13.11
2022-09-10T04:30:09.048Z,13.08
2022-09-10T04:31:04.194Z,13.04
2022-09-10T04:32:00.225Z,13.01
2022-09-10T04:32:55.264Z,13.00
2022-09-10T04:33:50.667Z,12.99
2022-09-10T04:34:45.762Z,13.01
2022-09-10T04:35:40.939Z,12.97
2022-09-10T04:36:35.994Z,12.94
2022-09-10T04:37:30.981Z,12.96
2022-09-10T04:38:26.052Z,12.99
2022-09-10T04:39:21.118Z,13.02
2022-09-10T04:40:16.212Z,13.06
2022-09-10T04:41:11.298Z,13.02
2022-09-10T04:42:06.396Z,12.96
2022-09-10T04:43:01.606Z,12.92
2022-09-10T04:43:56.678Z,12.87
2022-09-10T04:44:51.760Z,12.89
2022-09-10T04:45:47.082Z,12.89
2022-09-10T04:46:42.027Z,12.93
2022-09-10T04:47:37.089Z,12.95
2022-09-10T04:48:32.157Z,12.95
2022-09-10T04:49:27.216Z,12.89
2022-09-10T04:50:22.338Z,12.86
2022-09-10T04:51:18.084Z,12.85
2022-09-10T04:52:12.437Z,12.87
2022-09-10T04:53:07.432Z,12.86
2022-09-10T04:54:02.559Z,12.89
2022-09-10T04:54:57.550Z,12.86
2022-09-10T04:55:52.797Z,12.84
2022-09-10T04:56:48.078Z,12.82
2022-09-10T04:57:43.231Z,12.84
2022-09-10T04:58:43.517Z,12.90
2022-09-10T04:59:38.629Z,12.90
2022-09-10T05:00:33.972Z,12.91
2022-09-10T05:01:29.267Z,12.92
2022-09-10T05:02:24.629Z,12.91
2022-09-10T05:03:19.974Z,12.94
2022-09-10T05:04:15.264Z,12.94
2022-09-10T05:05:10.796Z,12.92
2022-09-10T05:06:05.857Z,12.93
2022-09-10T05:07:01.151Z,12.96
2022-09-10T05:07:56.478Z,12.98
2022-09-10T05:08:51.782Z,13.01
2022-09-10T05:09:47.071Z,13.04
2022-09-10T05:10:42.422Z,13.05
2022-09-10T05:11:37.863Z,13.07
2022-09-10T05:12:33.074Z,13.04
2022-09-10T05:13:28.384Z,13.05
2022-09-10T05:14:23.829Z,13.05
2022-09-10T05:15:19.147Z,13.06
2022-09-10T05:16:14.361Z,13.08
2022-09-10T05:17:09.634Z,13.13
2022-09-10T05:18:04.957Z,13.16
2022-09-10T05:19:00.256Z,13.17
2022-09-10T05:19:55.530Z,13.18
2022-09-10T05:20:50.858Z,13.13
2022-09-10T05:21:46.146Z,13.12
2022-09-10T05:22:41.431Z,13.07
2022-09-10T05:23:36.762Z,13.07
2022-09-10T05:24:32.078Z,13.09
2022-09-10T05:25:27.526Z,13.11
2022-09-10T05:26:22.695Z,13.13
2022-09-10T05:27:17.997Z,13.16
2022-09-10T05:28:13.321Z,13.13
2022-09-10T05:29:08.611Z,13.09
2022-09-10T05:30:03.892Z,13.09
2022-09-10T05:30:59.245Z,13.08
2022-09-10T05:31:54.572Z,13.08
2022-09-10T05:32:49.900Z,13.08
2022-09-10T05:33:45.184Z,13.09
2022-09-10T05:34:40.484Z,13.11
2022-09-10T05:35:35.838Z,13.11
2022-09-10T05:36:31.122Z,13.13
2022-09-10T05:37:26.541Z,13.17
2022-09-10T05:38:21.716Z,13.21
2022-09-10T05:39:17.011Z,13.25
2022-09-10T05:40:12.405Z,13.27
2022-09-10T05:41:07.429Z,13.29
2022-09-10T05:42:02.442Z,13.31
2022-09-10T05:42:57.476Z,13.33
2022-09-10T05:43:52.538Z,13.35
2022-09-10T05:44:47.581Z,13.34
2022-09-10T05:45:42.717Z,13.32
2022-09-10T05:46:37.748Z,13.30
2022-09-10T05:47:33.927Z,13.30
2022-09-10T05:48:28.999Z,13.29
2022-09-10T05:49:24.084Z,13.29
2022-09-10T05:50:19.363Z,13.28
2022-09-10T05:51:14.319Z,13.18
2022-09-10T05:52:09.277Z,13.15
2022-09-10T05:53:04.357Z,13.15
2022-09-10T05:53:59.436Z,13.14
2022-09-10T05:54:54.546Z,13.12
2022-09-10T05:55:49.642Z,13.14
2022-09-10T05:56:44.781Z,13.19
2022-09-10T05:57:39.877Z,13.24
2022-09-10T05:58:34.965Z,13.27
2022-09-10T05:59:30.052Z,13.26
2022-09-10T06:00:25.139Z,13.28
2022-09-10T06:01:20.373Z,13.27
2022-09-10T06:02:15.700Z,13.28
2022-09-10T06:03:11.361Z,13.32
2022-09-10T06:04:06.372Z,13.31
2022-09-10T06:05:01.833Z,13.28
2022-09-10T06:05:57.359Z,13.26
2022-09-10T06:06:52.691Z,13.26
2022-09-10T06:07:48.242Z,13.25
2022-09-10T06:08:43.679Z,13.26
2022-09-10T06:09:39.091Z,13.25
2022-09-10T06:10:34.521Z,13.23
2022-09-10T06:11:29.901Z,13.23
2022-09-10T06:12:25.325Z,13.23
2022-09-10T06:13:20.730Z,13.20
2022-09-10T06:14:15.710Z,13.20
2022-09-10T06:15:10.700Z,13.20
2022-09-10T06:16:05.912Z,13.19
2022-09-10T06:17:00.833Z,13.20
2022-09-10T06:17:55.964Z,13.21
2022-09-10T06:18:50.936Z,13.23
2022-09-10T06:19:45.977Z,13.23
2022-09-10T06:20:41.362Z,13.25
2022-09-10T06:21:36.130Z,13.20
2022-09-10T06:22:31.128Z,13.23
2022-09-10T06:23:26.129Z,13.28
2022-09-10T06:24:21.116Z,13.27
2022-09-10T06:25:16.119Z,13.28
2022-09-10T06:26:11.237Z,13.35
2022-09-10T06:27:09.067Z,13.30
2022-09-10T06:28:04.470Z,13.33
2022-09-10T06:28:59.885Z,13.41
2022-09-10T06:29:55.445Z,13.48
2022-09-10T06:30:50.858Z,13.49
2022-09-10T06:31:46.216Z,13.48
2022-09-10T06:32:41.503Z,13.51
2022-09-10T06:33:36.901Z,13.54
2022-09-10T06:34:32.323Z,13.58
2022-09-10T06:35:27.733Z,13.61
2022-09-10T06:36:23.170Z,13.61
2022-09-10T06:37:18.581Z,13.64
2022-09-10T06:38:13.994Z,13.68
2022-09-10T06:39:09.413Z,13.69
2022-09-10T06:40:04.985Z,13.71
2022-09-10T06:40:59.929Z,13.75
2022-09-10T06:41:54.987Z,13.81
2022-09-10T06:42:50.010Z,13.78
2022-09-10T06:43:45.125Z,13.73
2022-09-10T06:44:40.124Z,13.75
2022-09-10T06:45:35.196Z,13.80
2022-09-10T06:47:08.418Z,13.80
2022-09-10T06:48:48.063Z,13.72
2022-09-10T06:49:16.333Z,13.73
2022-09-10T06:50:12.328Z,13.76
2022-09-10T06:51:07.730Z,13.71
2022-09-10T06:52:03.178Z,13.74
2022-09-10T06:52:58.709Z,13.77
2022-09-10T06:53:53.945Z,13.79
2022-09-10T06:54:49.526Z,13.82
2022-09-10T06:55:44.821Z,13.84
2022-09-10T06:56:40.359Z,13.88
2022-09-10T06:57:35.660Z,13.89
2022-09-10T06:58:31.040Z,13.85
2022-09-10T06:59:26.462Z,13.79
2022-09-10T07:00:21.906Z,13.78
2022-09-10T07:01:17.399Z,13.78
2022-09-10T07:02:12.829Z,13.81
2022-09-10T07:03:08.794Z,13.81
2022-09-10T07:04:04.182Z,13.86
2022-09-10T07:04:59.796Z,13.88
2022-09-10T07:05:55.050Z,13.89
2022-09-10T07:06:50.471Z,13.92
2022-09-10T07:07:45.861Z,13.94
2022-09-10T07:08:41.231Z,13.92
2022-09-10T07:09:36.662Z,13.94
2022-09-10T07:10:32.091Z,13.98
2022-09-10T07:11:27.610Z,14.06
2022-09-10T07:12:26.968Z,14.09
2022-09-10T07:13:22.272Z,14.02
2022-09-10T07:14:17.770Z,14.04
2022-09-10T07:15:13.148Z,14.05
2022-09-10T07:16:08.573Z,14.07
2022-09-10T07:17:03.845Z,14.14
2022-09-10T07:17:59.389Z,14.11
2022-09-10T07:18:54.664Z,14.13
2022-09-10T07:19:50.324Z,14.16
2022-09-10T07:20:45.477Z,14.15
2022-09-10T07:21:40.908Z,14.17
2022-09-10T07:22:36.477Z,14.12
2022-09-10T07:23:31.727Z,14.12
2022-09-10T07:24:27.209Z,14.09
2022-09-10T07:25:22.757Z,14.08
2022-09-10T07:26:18.015Z,14.11
2022-09-10T07:27:13.392Z,14.14
2022-09-10T07:28:08.826Z,14.19
2022-09-10T07:29:03.916Z,14.20
2022-09-10T07:29:59.056Z,14.18
2022-09-10T07:30:54.129Z,14.17
2022-09-10T07:31:49.152Z,14.21
2022-09-10T07:32:44.173Z,14.26
2022-09-10T07:33:39.304Z,14.34
2022-09-10T07:34:34.310Z,14.44
2022-09-10T07:35:31.769Z,14.45
2022-09-10T07:36:26.763Z,14.47
2022-09-10T07:37:21.765Z,14.50
2022-09-10T07:38:16.816Z,14.51
2022-09-10T07:39:11.810Z,14.46
2022-09-10T07:40:06.942Z,14.44
2022-09-10T07:41:02.024Z,14.48
2022-09-10T07:41:57.036Z,14.49
2022-09-10T07:42:52.034Z,14.53
2022-09-10T07:43:47.054Z,14.55
2022-09-10T07:44:42.038Z,14.59
2022-09-10T07:45:37.091Z,14.65
2022-09-10T07:46:32.128Z,14.67
2022-09-10T07:47:27.178Z,14.72
2022-09-10T07:48:22.211Z,14.73
2022-09-10T07:49:17.242Z,14.78
2022-09-10T07:50:12.260Z,14.82
2022-09-10T07:51:07.348Z,14.85
2022-09-10T07:52:02.383Z,14.89
2022-09-10T07:52:57.419Z,14.91
2022-09-10T07:53:52.500Z,14.98
2022-09-10T07:54:47.555Z,15.05
2022-09-10T07:55:42.599Z,14.94
2022-09-10T07:56:37.705Z,14.96
2022-09-10T07:57:32.766Z,15.02
2022-09-10T07:58:27.787Z,15.10
2022-09-10T07:59:22.869Z,15.11
2022-09-10T08:00:17.886Z,14.98
2022-09-10T08:01:12.984Z,14.94
2022-09-10T08:02:08.042Z,14.90
2022-09-10T08:03:02.926Z,14.89
2022-09-10T08:03:58.132Z,14.98
2022-09-10T08:04:57.234Z,14.99
2022-09-10T08:05:52.283Z,15.00
2022-09-10T08:06:47.383Z,14.98
2022-09-10T08:07:42.406Z,14.98
2022-09-10T08:08:38.505Z,14.98
2022-09-10T08:09:33.823Z,15.02
2022-09-10T08:10:29.272Z,15.04
2022-09-10T08:11:24.840Z,15.08
2022-09-10T08:12:20.188Z,15.16
2022-09-10T08:13:15.786Z,15.16
2022-09-10T08:14:11.325Z,15.12
2022-09-10T08:15:06.664Z,15.14
2022-09-10T08:16:02.307Z,15.22
2022-09-10T08:16:57.760Z,15.32
2022-09-10T08:17:53.226Z,15.44
2022-09-10T08:18:48.628Z,15.49
2022-09-10T08:19:44.092Z,15.56
2022-09-10T08:20:39.828Z,15.61
2022-09-10T08:21:34.870Z,15.63
2022-09-10T08:22:29.952Z,15.60
2022-09-10T08:23:25.039Z,15.61
2022-09-10T08:24:20.121Z,15.63
2022-09-10T08:25:15.134Z,15.56
2022-09-10T08:26:10.160Z,15.47
2022-09-10T08:27:05.168Z,15.41
2022-09-10T08:28:02.729Z,15.36
2022-09-10T08:28:57.778Z,15.35
2022-09-10T08:29:52.811Z,15.38
2022-09-10T08:30:47.965Z,15.39
2022-09-10T08:31:42.810Z,15.36
2022-09-10T08:32:37.797Z,15.39
2022-09-10T08:33:32.938Z,15.42
2022-09-10T08:34:27.924Z,15.41
2022-09-10T08:35:23.025Z,15.43
2022-09-10T08:36:18.084Z,15.44
2022-09-10T08:37:13.154Z,15.49
2022-09-10T08:38:08.228Z,15.49
2022-09-10T08:39:08.112Z,15.55
2022-09-10T08:39:59.728Z,15.57
2022-09-10T08:40:53.953Z,15.57
2022-09-10T08:41:49.462Z,15.55
2022-09-10T08:42:44.898Z,15.63
2022-09-10T08:43:40.403Z,15.69
2022-09-10T08:44:35.697Z,15.75
2022-09-10T08:45:31.268Z,15.77
2022-09-10T08:46:26.734Z,15.75
2022-09-10T08:47:22.320Z,15.67
2022-09-10T08:48:17.655Z,15.68
2022-09-10T08:49:13.521Z,15.69
2022-09-10T08:50:09.101Z,15.74
2022-09-10T08:51:07.959Z,15.81
2022-09-10T08:52:03.444Z,15.89
2022-09-10T08:52:59.060Z,15.87
2022-09-10T08:53:54.560Z,15.90
2022-09-10T08:54:49.956Z,15.96
2022-09-10T08:55:48.788Z,15.99
2022-09-10T08:56:40.992Z,16.03
2022-09-10T08:57:36.579Z,16.12
2022-09-10T08:58:31.916Z,16.17
2022-09-10T08:59:27.380Z,16.21
2022-09-10T09:00:22.837Z,16.29
2022-09-10T09:01:18.431Z,16.36
2022-09-10T09:02:26.291Z,16.45
2022-09-10T09:03:10.362Z,16.53
2022-09-10T09:04:06.290Z,16.61
2022-09-10T09:05:00.122Z,16.58
2022-09-10T09:05:55.645Z,16.48
2022-09-10T09:06:51.029Z,16.58
2022-09-10T09:07:46.559Z,16.64
2022-09-10T09:08:42.172Z,16.66
2022-09-10T09:09:37.645Z,16.70
2022-09-10T09:10:33.093Z,16.72
2022-09-10T09:11:28.703Z,16.81
2022-09-10T09:12:24.196Z,16.90
2022-09-10T09:13:22.731Z,16.97
2022-09-10T09:14:18.148Z,17.05
2022-09-10T09:15:13.758Z,17.17
2022-09-10T09:16:09.307Z,17.14
2022-09-10T09:17:04.755Z,17.09
2022-09-10T09:18:00.257Z,17.18
2022-09-10T09:18:55.852Z,17.23
2022-09-10T09:19:51.331Z,17.21
2022-09-10T09:20:46.754Z,17.19
2022-09-10T09:21:43.117Z,17.09
2022-09-10T09:22:40.015Z,16.97
2022-09-10T09:23:32.325Z,16.94
2022-09-10T09:24:27.533Z,17.01
2022-09-10T09:25:22.594Z,17.02
2022-09-10T09:26:17.725Z,17.03
2022-09-10T09:27:12.789Z,17.04
2022-09-10T09:28:07.850Z,16.99
2022-09-10T09:29:03.046Z,16.95
2022-09-10T09:29:58.091Z,16.95
2022-09-10T09:30:53.148Z,16.91
2022-09-10T09:31:48.242Z,16.88
2022-09-10T09:32:43.280Z,16.90
2022-09-10T09:33:38.466Z,16.91
2022-09-10T09:34:33.937Z,16.87
2022-09-10T09:35:29.460Z,16.94
2022-09-10T09:36:28.476Z,17.11
2022-09-10T09:37:23.906Z,17.27
2022-09-10T09:38:19.440Z,17.34
2022-09-10T09:39:15.055Z,17.48
2022-09-10T09:40:10.483Z,17.57
2022-09-10T09:41:05.996Z,17.59
2022-09-10T09:42:01.530Z,17.60
2022-09-10T09:42:56.937Z,17.82
2022-09-10T09:43:52.329Z,18.06
2022-09-10T09:44:47.855Z,18.33
2022-09-10T09:45:43.468Z,18.60
2022-09-10T09:46:38.954Z,18.50
2022-09-10T09:47:34.502Z,18.40
2022-09-10T09:48:29.980Z,18.38
2022-09-10T09:49:25.468Z,18.40
2022-09-10T09:50:20.988Z,18.34
2022-09-10T09:51:16.473Z,18.12
2022-09-10T09:52:11.999Z,18.04
2022-09-10T09:53:07.535Z,18.24
2022-09-10T09:54:34.525Z,18.34
2022-09-10T09:55:15.732Z,18.23
2022-09-10T09:55:54.251Z,17.94
2022-09-10T09:56:48.329Z,17.76
2022-09-10T09:57:43.411Z,17.61
2022-09-10T09:58:38.620Z,17.46
2022-09-10T09:59:33.543Z,17.40
2022-09-10T10:00:28.637Z,17.19
2022-09-10T10:01:24.015Z,17.08
2022-09-10T10:02:19.419Z,17.02
2022-09-10T10:03:14.726Z,17.01
2022-09-10T10:04:10.278Z,16.96
2022-09-10T10:05:05.677Z,16.94
2022-09-10T10:06:00.788Z,16.95
2022-09-10T10:06:55.907Z,16.96
2022-09-10T10:07:51.057Z,17.00
2022-09-10T10:08:46.058Z,16.92
2022-09-10T10:09:41.071Z,16.80
2022-09-10T10:10:36.111Z,16.76
2022-09-10T10:11:31.112Z,16.61
2022-09-10T10:12:28.288Z,16.60
2022-09-10T10:13:23.388Z,16.64
2022-09-10T10:14:18.542Z,16.69
2022-09-10T10:15:13.531Z,16.75
2022-09-10T10:16:08.637Z,16.66
2022-09-10T10:17:03.696Z,16.59
2022-09-10T10:17:58.752Z,16.58
2022-09-10T10:18:53.779Z,16.55
2022-09-10T10:19:48.985Z,16.33
2022-09-10T10:20:44.534Z,16.15
2022-09-10T10:21:39.949Z,16.07
2022-09-10T10:22:35.445Z,15.95
2022-09-10T10:23:31.321Z,15.84
2022-09-10T10:24:26.598Z,15.87
2022-09-10T10:25:21.925Z,15.90
2022-09-10T10:26:17.426Z,15.92
2022-09-10T10:27:12.853Z,15.94
2022-09-10T10:28:08.371Z,16.21
2022-09-10T10:29:03.732Z,16.61
2022-09-10T10:29:59.248Z,16.75
2022-09-10T10:30:54.849Z,16.88
2022-09-10T10:31:50.221Z,16.86
2022-09-10T10:32:45.772Z,17.12
2022-09-10T10:33:41.525Z,17.33
2022-09-10T10:34:36.891Z,17.38
2022-09-10T10:35:35.670Z,17.28
2022-09-10T10:36:31.095Z,17.26
2022-09-10T10:37:26.471Z,17.32
2022-09-10T10:38:21.898Z,17.21
2022-09-10T10:39:17.421Z,17.08
2022-09-10T10:40:12.933Z,17.04
2022-09-10T10:41:08.339Z,17.10
2022-09-10T10:42:03.754Z,17.17
2022-09-10T10:42:59.259Z,17.23
2022-09-10T10:43:54.970Z,17.30
2022-09-10T10:44:50.369Z,17.37
2022-09-10T10:45:45.727Z,17.57
2022-09-10T10:46:41.636Z,17.71
2022-09-10T10:47:37.148Z,17.74
2022-09-10T10:48:32.557Z,18.08
2022-09-10T10:49:27.626Z,18.48
2022-09-10T10:50:22.748Z,18.98
2022-09-10T10:51:17.826Z,19.46
2022-09-10T10:52:12.929Z,19.55
2022-09-10T10:53:08.166Z,19.45
2022-09-10T10:54:03.289Z,19.76
2022-09-10T10:54:58.337Z,20.08
2022-09-10T10:55:55.335Z,20.35
2022-09-10T10:56:50.841Z,20.18
2022-09-10T10:57:46.305Z,20.13
2022-09-10T10:58:41.645Z,19.85
2022-09-10T10:59:37.397Z,19.37
2022-09-10T11:00:32.927Z,19.24
2022-09-10T11:01:28.481Z,19.25
2022-09-10T11:02:23.873Z,18.98
2022-09-10T11:03:19.469Z,18.50
2022-09-10T11:04:14.811Z,18.09
2022-09-10T11:05:10.287Z,17.76
2022-09-10T11:06:05.757Z,17.66
2022-09-10T11:07:01.195Z,17.49
2022-09-10T11:07:56.747Z,17.38
2022-09-10T11:08:52.052Z,17.40
2022-09-10T11:09:47.526Z,17.46
2022-09-10T11:10:43.070Z,17.38
2022-09-10T11:11:38.505Z,17.22
2022-09-10T11:12:33.995Z,17.13
2022-09-10T11:13:29.621Z,17.19
2022-09-10T11:14:25.107Z,17.18
2022-09-10T11:15:20.728Z,17.13
2022-09-10T11:16:16.280Z,17.17
2022-09-10T11:17:11.696Z,17.47
2022-09-10T11:18:06.801Z,17.63
2022-09-10T11:19:01.915Z,17.72
2022-09-10T11:20:24.214Z,17.71
2022-09-10T11:20:54.392Z,17.72
2022-09-10T11:21:48.503Z,17.53
2022-09-10T11:22:43.587Z,17.34
2022-09-10T11:23:38.661Z,17.31
2022-09-10T11:24:34.782Z,17.24
2022-09-10T11:25:30.246Z,17.28
2022-09-10T11:26:25.750Z,17.25
2022-09-10T11:27:21.218Z,17.33
2022-09-10T11:28:16.796Z,17.37
2022-09-10T11:29:12.301Z,17.48
2022-09-10T11:30:07.804Z,17.54
2022-09-10T11:31:03.285Z,17.59
2022-09-10T11:31:58.619Z,17.54
2022-09-10T11:32:54.079Z,17.37
2022-09-10T11:33:49.697Z,17.20
2022-09-10T11:34:45.043Z,17.18
2022-09-10T11:35:40.468Z,17.28
2022-09-10T11:36:35.958Z,17.39
2022-09-10T11:37:30.966Z,17.41
2022-09-10T11:38:26.072Z,17.44
2022-09-10T11:39:21.087Z,17.49
2022-09-10T11:40:16.132Z,17.53
2022-09-10T11:41:11.347Z,17.57
2022-09-10T11:42:06.240Z,17.61
2022-09-10T11:43:01.229Z,17.62
2022-09-10T11:43:58.416Z,17.55
2022-09-10T11:44:53.446Z,17.45
2022-09-10T11:45:48.566Z,17.32
2022-09-10T11:46:43.577Z,17.22
2022-09-10T11:47:38.566Z,17.14
2022-09-10T11:48:33.701Z,17.14
2022-09-10T11:49:28.711Z,17.13
2022-09-10T11:50:23.832Z,17.09
2022-09-10T11:51:18.881Z,17.03
2022-09-10T11:52:13.885Z,16.89
2022-09-10T11:53:09.005Z,16.68
2022-09-10T11:54:04.044Z,16.64